sensor_id;sensor_type;location;lat;lon;timestamp;pressure;altitude;pressure_sealevel;temperature;humidity
37634;BME280;32048;49.902;22.508;2023-05-09T00:00:44;99886.59;;;-0.72;100.00
37634;BME280;32048;49.902;22.508;2023-05-09T00:03:13;99896.97;;;-0.72;100.00
37634;BME280;32048;49.902;22.508;2023-05-09T00:05:40;99884.81;;;-0.74;100.00
37634;BME280;32048;49.902;22.508;2023-05-09T00:08:07;99876.19;;;-0.75;100.00
37634;BME280;32048;49.902;22.508;2023-05-09T00:10:35;99884.75;;;-0.79;100.00
37634;BME280;32048;49.902;22.508;2023-05-09T00:13:02;99883.88;;;-0.82;100.00
37634;BME280;32048;49.902;22.508;2023-05-09T00:15:30;99888.19;;;-0.81;100.00
37634;BME280;32048;49.902;22.508;2023-05-09T00:17:57;99876.06;;;-0.84;100.00
37634;BME280;32048;49.902;22.508;2023-05-09T00:20:25;99876.94;;;-0.85;100.00
37634;BME280;32048;49.902;22.508;2023-05-09T00:22:52;99878.63;;;-0.87;100.00
37634;BME280;32048;49.902;22.508;2023-05-09T00:25:19;99867.41;;;-0.86;100.00
37634;BME280;32048;49.902;22.508;2023-05-09T00:27:46;99873.44;;;-0.86;100.00
37634;BME280;32048;49.902;22.508;2023-05-09T00:30:13;99870.84;;;-0.89;100.00
37634;BME280;32048;49.902;22.508;2023-05-09T00:32:40;99869.91;;;-0.92;100.00
37634;BME280;32048;49.902;22.508;2023-05-09T00:35:08;99871.59;;;-0.94;100.00
37634;BME280;32048;49.902;22.508;2023-05-09T00:37:35;99872.41;;;-1.00;100.00
37634;BME280;32048;49.902;22.508;2023-05-09T00:40:04;99871.50;;;-1.03;100.00
37634;BME280;32048;49.902;22.508;2023-05-09T00:42:32;99869.72;;;-1.09;100.00
37634;BME280;32048;49.902;22.508;2023-05-09T00:44:59;99869.75;;;-1.08;100.00
37634;BME280;32048;49.902;22.508;2023-05-09T00:47:27;99876.63;;;-1.08;100.00
37634;BME280;32048;49.902;22.508;2023-05-09T00:49:56;99873.16;;;-1.12;100.00
37634;BME280;32048;49.902;22.508;2023-05-09T00:52:24;99876.53;;;-1.16;100.00
37634;BME280;32048;49.902;22.508;2023-05-09T00:54:52;99867.03;;;-1.15;100.00
37634;BME280;32048;49.902;22.508;2023-05-09T00:57:20;99873.16;;;-1.12;100.00
37634;BME280;32048;49.902;22.508;2023-05-09T00:59:48;99879.16;;;-1.14;100.00
37634;BME280;32048;49.902;22.508;2023-05-09T01:02:16;99877.41;;;-1.15;100.00
37634;BME280;32048;49.902;22.508;2023-05-09T01:04:44;99873.03;;;-1.19;100.00
37634;BME280;32048;49.902;22.508;2023-05-09T01:07:18;99869.47;;;-1.26;100.00
37634;BME280;32048;49.902;22.508;2023-05-09T01:12:38;99878.00;;;-1.36;100.00
37634;BME280;32048;49.902;22.508;2023-05-09T01:15:12;99882.25;;;-1.40;100.00
37634;BME280;32048;49.902;22.508;2023-05-09T01:17:53;99882.22;;;-1.41;100.00
37634;BME280;32048;49.902;22.508;2023-05-09T01:20:30;99877.88;;;-1.45;100.00
37634;BME280;32048;49.902;22.508;2023-05-09T01:31:45;99873.47;;;-1.50;100.00
37634;BME280;32048;49.902;22.508;2023-05-09T01:34:16;99878.59;;;-1.53;100.00
37634;BME280;32048;49.902;22.508;2023-05-09T01:36:45;99882.91;;;-1.53;100.00
37634;BME280;32048;49.902;22.508;2023-05-09T01:39:14;99884.69;;;-1.52;100.00
37634;BME280;32048;49.902;22.508;2023-05-09T01:41:44;99881.22;;;-1.51;100.00
37634;BME280;32048;49.902;22.508;2023-05-09T01:44:12;99876.09;;;-1.47;100.00
37634;BME280;32048;49.902;22.508;2023-05-09T01:46:43;99872.66;;;-1.47;100.00
37634;BME280;32048;49.902;22.508;2023-05-09T01:49:10;99875.22;;;-1.49;100.00
37634;BME280;32048;49.902;22.508;2023-05-09T01:51:38;99875.22;;;-1.49;100.00
37634;BME280;32048;49.902;22.508;2023-05-09T01:54:08;99873.47;;;-1.50;100.00
37634;BME280;32048;49.902;22.508;2023-05-09T01:56:36;99876.91;;;-1.52;100.00
37634;BME280;32048;49.902;22.508;2023-05-09T01:59:05;99871.69;;;-1.54;100.00
37634;BME280;32048;49.902;22.508;2023-05-09T02:01:33;99863.88;;;-1.57;100.00
37634;BME280;32048;49.902;22.508;2023-05-09T02:04:02;99868.16;;;-1.59;100.00
37634;BME280;32048;49.902;22.508;2023-05-09T02:06:30;99866.47;;;-1.57;100.00
37634;BME280;32048;49.902;22.508;2023-05-09T02:08:58;99859.56;;;-1.56;100.00
37634;BME280;32048;49.902;22.508;2023-05-09T02:11:26;99859.53;;;-1.58;100.00
37634;BME280;32048;49.902;22.508;2023-05-09T02:13:52;99859.50;;;-1.61;100.00
37634;BME280;32048;49.902;22.508;2023-05-09T02:16:20;99856.06;;;-1.61;100.00
37634;BME280;32048;49.902;22.508;2023-05-09T02:18:47;99855.19;;;-1.60;100.00
37634;BME280;32048;49.902;22.508;2023-05-09T02:21:14;99854.25;;;-1.64;100.00
37634;BME280;32048;49.902;22.508;2023-05-09T02:23:41;99857.75;;;-1.62;100.00
37634;BME280;32048;49.902;22.508;2023-05-09T02:26:09;99848.22;;;-1.64;100.00
37634;BME280;32048;49.902;22.508;2023-05-09T02:28:37;99855.97;;;-1.64;100.00
37634;BME280;32048;49.902;22.508;2023-05-09T02:31:05;99849.94;;;-1.65;100.00
37634;BME280;32048;49.902;22.508;2023-05-09T02:33:34;99854.16;;;-1.72;100.00
37634;BME280;32048;49.902;22.508;2023-05-09T02:36:02;99852.44;;;-1.71;100.00
37634;BME280;32048;49.902;22.508;2023-05-09T02:38:31;99845.47;;;-1.75;100.00
37634;BME280;32048;49.902;22.508;2023-05-09T02:40:58;99859.31;;;-1.75;100.00
37634;BME280;32048;49.902;22.508;2023-05-09T02:43:25;99858.41;;;-1.77;100.00
37634;BME280;32048;49.902;22.508;2023-05-09T02:45:52;99853.22;;;-1.75;100.00
37634;BME280;32048;49.902;22.508;2023-05-09T02:48:19;99853.22;;;-1.75;100.00
37634;BME280;32048;49.902;22.508;2023-05-09T02:50:46;99859.31;;;-1.73;100.00
37634;BME280;32048;49.902;22.508;2023-05-09T02:53:13;99857.56;;;-1.73;100.00
37634;BME280;32048;49.902;22.508;2023-05-09T02:55:41;99861.09;;;-1.69;100.00
37634;BME280;32048;49.902;22.508;2023-05-09T02:58:07;99858.53;;;-1.68;100.00
37634;BME280;32048;49.902;22.508;2023-05-09T03:00:41;99859.44;;;-1.64;100.00
37634;BME280;32048;49.902;22.508;2023-05-09T03:03:08;99855.09;;;-1.67;100.00
37634;BME280;32048;49.902;22.508;2023-05-09T03:05:35;99862.94;;;-1.63;100.00
37634;BME280;32048;49.902;22.508;2023-05-09T03:08:02;99867.25;;;-1.62;100.00
37634;BME280;32048;49.902;22.508;2023-05-09T03:10:29;99862.09;;;-1.61;100.00
37634;BME280;32048;49.902;22.508;2023-05-09T03:12:56;99863.88;;;-1.57;100.00
37634;BME280;32048;49.902;22.508;2023-05-09T03:15:23;99855.28;;;-1.54;100.00
37634;BME280;32048;49.902;22.508;2023-05-09T03:17:50;99868.34;;;-1.47;100.00
37634;BME280;32048;49.902;22.508;2023-05-09T03:20:18;99859.72;;;-1.44;100.00
37634;BME280;32048;49.902;22.508;2023-05-09T03:22:45;99858.91;;;-1.41;100.00
37634;BME280;32048;49.902;22.508;2023-05-09T03:25:14;99871.06;;;-1.37;100.00
37634;BME280;32048;49.902;22.508;2023-05-09T03:27:42;99873.72;;;-1.33;100.00
37634;BME280;32048;49.902;22.508;2023-05-09T03:30:09;99860.81;;;-1.28;100.00
37634;BME280;32048;49.902;22.508;2023-05-09T03:32:36;99860.03;;;-1.22;100.00
37634;BME280;32048;49.902;22.508;2023-05-09T03:35:05;99861.00;;;-1.13;100.00
37634;BME280;32048;49.902;22.508;2023-05-09T03:37:32;99863.69;;;-1.07;100.00
37634;BME280;32048;49.902;22.508;2023-05-09T03:39:59;99862.97;;;-0.96;100.00
37634;BME280;32048;49.902;22.508;2023-05-09T03:42:26;99869.09;;;-0.88;100.00
37634;BME280;32048;49.902;22.508;2023-05-09T03:44:53;99873.56;;;-0.78;100.00
37634;BME280;32048;49.902;22.508;2023-05-09T03:47:20;99865.88;;;-0.69;100.00
37634;BME280;32048;49.902;22.508;2023-05-09T03:49:48;99868.56;;;-0.59;100.00
37634;BME280;32048;49.902;22.508;2023-05-09T03:52:14;99861.78;;;-0.48;100.00
37634;BME280;32048;49.902;22.508;2023-05-09T03:54:42;99870.50;;;-0.38;100.00
37634;BME280;32048;49.902;22.508;2023-05-09T03:57:08;99869.75;;;-0.28;100.00
37634;BME280;32048;49.902;22.508;2023-05-09T03:59:36;99869.88;;;-0.14;100.00
37634;BME280;32048;49.902;22.508;2023-05-09T04:02:02;99867.44;;;0.04;100.00
37634;BME280;32048;49.902;22.508;2023-05-09T04:04:30;99871.06;;;0.22;100.00
37634;BME280;32048;49.902;22.508;2023-05-09T04:06:57;99879.00;;;0.41;100.00
37634;BME280;32048;49.902;22.508;2023-05-09T04:09:24;99876.56;;;0.66;100.00
37634;BME280;32048;49.902;22.508;2023-05-09T04:11:51;99871.53;;;0.95;100.00
37634;BME280;32048;49.902;22.508;2023-05-09T04:14:18;99866.44;;;1.28;100.00
37634;BME280;32048;49.902;22.508;2023-05-09T04:16:45;99872.63;;;1.60;100.00
37634;BME280;32048;49.902;22.508;2023-05-09T04:19:12;99864.84;;;1.94;100.00
37634;BME280;32048;49.902;22.508;2023-05-09T04:21:39;99870.94;;;2.25;100.00
37634;BME280;32048;49.902;22.508;2023-05-09T04:24:06;99868.28;;;2.61;100.00
37634;BME280;32048;49.902;22.508;2023-05-09T04:26:33;99869.97;;;2.94;100.00
37634;BME280;32048;49.902;22.508;2023-05-09T04:29:04;99866.31;;;3.29;100.00
37634;BME280;32048;49.902;22.508;2023-05-09T04:31:31;99865.28;;;3.64;100.00
37634;BME280;32048;49.902;22.508;2023-05-09T04:33:58;99863.31;;;3.98;100.00
37634;BME280;32048;49.902;22.508;2023-05-09T04:36:25;99863.03;;;4.33;100.00
37634;BME280;32048;49.902;22.508;2023-05-09T04:38:53;99864.38;;;4.73;100.00
37634;BME280;32048;49.902;22.508;2023-05-09T04:41:20;99870.06;;;5.10;100.00
37634;BME280;32048;49.902;22.508;2023-05-09T04:43:48;99865.19;;;5.52;100.00
37634;BME280;32048;49.902;22.508;2023-05-09T04:46:15;99864.63;;;5.89;100.00
37634;BME280;32048;49.902;22.508;2023-05-09T04:48:42;99867.69;;;6.20;100.00
37634;BME280;32048;49.902;22.508;2023-05-09T04:51:09;99869.69;;;6.57;100.00
37634;BME280;32048;49.902;22.508;2023-05-09T04:53:36;99869.75;;;7.01;100.00
37634;BME280;32048;49.902;22.508;2023-05-09T04:56:03;99871.53;;;7.42;100.00
37634;BME280;32048;49.902;22.508;2023-05-09T04:58:30;99870.63;;;7.84;100.00
37634;BME280;32048;49.902;22.508;2023-05-09T05:01:00;99884.75;;;8.17;100.00
37634;BME280;32048;49.902;22.508;2023-05-09T05:03:27;99888.94;;;8.24;100.00
37634;BME280;32048;49.902;22.508;2023-05-09T05:05:54;99888.97;;;8.60;100.00
37634;BME280;32048;49.902;22.508;2023-05-09T05:08:21;99889.63;;;9.01;100.00
37634;BME280;32048;49.902;22.508;2023-05-09T05:10:47;99890.03;;;9.50;100.00
37634;BME280;32048;49.902;22.508;2023-05-09T05:13:15;99881.72;;;9.92;91.83
37634;BME280;32048;49.902;22.508;2023-05-09T05:15:42;99892.00;;;10.29;86.55
37634;BME280;32048;49.902;22.508;2023-05-09T05:18:10;99891.78;;;10.62;84.28
37634;BME280;32048;49.902;22.508;2023-05-09T05:20:39;99882.75;;;10.94;80.03
37634;BME280;32048;49.902;22.508;2023-05-09T05:23:08;99888.19;;;11.15;77.43
37634;BME280;32048;49.902;22.508;2023-05-09T05:25:35;99884.09;;;11.30;74.19
37634;BME280;32048;49.902;22.508;2023-05-09T05:28:03;99881.75;;;11.45;72.94
37634;BME280;32048;49.902;22.508;2023-05-09T05:30:29;99876.16;;;11.77;73.56
37634;BME280;32048;49.902;22.508;2023-05-09T05:33:00;99884.47;;;11.91;69.83
37634;BME280;32048;49.902;22.508;2023-05-09T05:35:27;99881.00;;;11.65;69.89
37634;BME280;32048;49.902;22.508;2023-05-09T05:37:55;99880.41;;;11.81;71.03
37634;BME280;32048;49.902;22.508;2023-05-09T05:40:22;99880.84;;;12.16;68.22
37634;BME280;32048;49.902;22.508;2023-05-09T05:42:49;99873.75;;;12.59;70.47
37634;BME280;32048;49.902;22.508;2023-05-09T05:45:16;99874.44;;;13.05;65.69
37634;BME280;32048;49.902;22.508;2023-05-09T05:47:43;99863.28;;;13.57;66.99
37634;BME280;32048;49.902;22.508;2023-05-09T05:50:11;99861.34;;;14.16;64.02
37634;BME280;32048;49.902;22.508;2023-05-09T05:52:39;99864.69;;;14.73;61.28
37634;BME280;32048;49.902;22.508;2023-05-09T05:55:07;99861.28;;;15.22;58.23
37634;BME280;32048;49.902;22.508;2023-05-09T05:57:34;99864.81;;;15.71;55.74
37634;BME280;32048;49.902;22.508;2023-05-09T06:00:04;99863.56;;;15.78;53.01
37634;BME280;32048;49.902;22.508;2023-05-09T06:02:35;99863.34;;;16.13;52.46
37634;BME280;32048;49.902;22.508;2023-05-09T06:05:03;99869.16;;;16.36;48.38
37634;BME280;32048;49.902;22.508;2023-05-09T06:07:30;99861.13;;;16.52;49.63
37634;BME280;32048;49.902;22.508;2023-05-09T06:09:57;99863.66;;;16.39;49.61
37634;BME280;32048;49.902;22.508;2023-05-09T06:12:24;99855.94;;;16.18;48.56
37634;BME280;32048;49.902;22.508;2023-05-09T06:14:53;99851.06;;;15.95;49.40
37634;BME280;32048;49.902;22.508;2023-05-09T06:17:20;99857.50;;;16.07;48.90
37634;BME280;32048;49.902;22.508;2023-05-09T06:19:47;99843.63;;;16.32;48.79
37634;BME280;32048;49.902;22.508;2023-05-09T06:22:14;99844.13;;;16.69;48.40
37634;BME280;32048;49.902;22.508;2023-05-09T06:24:41;99854.88;;;17.12;45.38
37634;BME280;32048;49.902;22.508;2023-05-09T06:27:08;99846.97;;;17.39;46.25
37634;BME280;32048;49.902;22.508;2023-05-09T06:29:35;99845.91;;;17.41;44.72
37634;BME280;32048;49.902;22.508;2023-05-09T06:32:03;99848.50;;;17.43;45.41
37634;BME280;32048;49.902;22.508;2023-05-09T06:34:30;99843.34;;;17.25;43.55
37634;BME280;32048;49.902;22.508;2023-05-09T06:36:58;99846.03;;;17.11;45.26
37634;BME280;32048;49.902;22.508;2023-05-09T06:39:24;99848.50;;;17.43;45.48
37634;BME280;32048;49.902;22.508;2023-05-09T06:41:51;99849.44;;;17.42;43.65
37634;BME280;32048;49.902;22.508;2023-05-09T06:44:18;99852.56;;;17.77;42.68
37634;BME280;32048;49.902;22.508;2023-05-09T06:46:45;99844.13;;;18.25;39.76
37634;BME280;32048;49.902;22.508;2023-05-09T06:49:13;99837.44;;;18.05;40.29
37634;BME280;32048;49.902;22.508;2023-05-09T06:51:40;99837.75;;;18.27;42.28
37634;BME280;32048;49.902;22.508;2023-05-09T06:54:07;99842.63;;;18.61;41.78
37634;BME280;32048;49.902;22.508;2023-05-09T06:56:34;99845.72;;;18.95;40.81
37634;BME280;32048;49.902;22.508;2023-05-09T06:59:02;99842.69;;;19.25;40.01
37634;BME280;32048;49.902;22.508;2023-05-09T07:01:29;99838.03;;;19.52;40.61
37634;BME280;32048;49.902;22.508;2023-05-09T07:03:56;99844.41;;;19.39;38.18
37634;BME280;32048;49.902;22.508;2023-05-09T07:06:25;99835.41;;;19.27;38.73
37634;BME280;32048;49.902;22.508;2023-05-09T07:08:51;99837.75;;;19.44;38.37
37634;BME280;32048;49.902;22.508;2023-05-09T07:11:19;99845.38;;;19.12;36.71
37634;BME280;32048;49.902;22.508;2023-05-09T07:13:46;99815.41;;;19.07;38.97
37634;BME280;32048;49.902;22.508;2023-05-09T07:16:14;99827.78;;;19.46;37.81
37634;BME280;32048;49.902;22.508;2023-05-09T07:18:41;99820.28;;;19.39;37.44
37634;BME280;32048;49.902;22.508;2023-05-09T07:21:08;99822.50;;;19.58;36.19
37634;BME280;32048;49.902;22.508;2023-05-09T07:23:35;99820.34;;;19.76;36.82
37634;BME280;32048;49.902;22.508;2023-05-09T07:26:02;99819.34;;;19.89;35.15
37634;BME280;32048;49.902;22.508;2023-05-09T07:28:29;99819.75;;;20.20;36.93
37634;BME280;32048;49.902;22.508;2023-05-09T07:30:57;99815.50;;;20.29;34.45
37634;BME280;32048;49.902;22.508;2023-05-09T07:33:24;99807.66;;;20.50;35.42
37634;BME280;32048;49.902;22.508;2023-05-09T07:35:51;99818.31;;;20.27;34.27
37634;BME280;32048;49.902;22.508;2023-05-09T07:38:18;99813.69;;;20.29;33.96
37634;BME280;32048;49.902;22.508;2023-05-09T07:40:45;99814.19;;;20.34;35.58
37634;BME280;32048;49.902;22.508;2023-05-09T07:43:12;99810.66;;;20.34;35.14
37634;BME280;32048;49.902;22.508;2023-05-09T07:45:40;99816.19;;;20.55;34.90
37634;BME280;32048;49.902;22.508;2023-05-09T07:48:07;99800.94;;;20.55;34.43
37634;BME280;32048;49.902;22.508;2023-05-09T07:50:35;99807.38;;;20.42;33.00
37634;BME280;32048;49.902;22.508;2023-05-09T07:53:02;99812.66;;;19.95;34.70
37634;BME280;32048;49.902;22.508;2023-05-09T07:55:29;99800.38;;;19.80;35.04
37634;BME280;32048;49.902;22.508;2023-05-09T07:57:56;99811.78;;;19.58;35.00
37634;BME280;32048;49.902;22.508;2023-05-09T08:00:24;99805.66;;;18.80;35.95
37634;BME280;32048;49.902;22.508;2023-05-09T08:02:51;99814.09;;;18.21;37.74
37634;BME280;32048;49.902;22.508;2023-05-09T08:05:19;99807.78;;;17.95;37.29
37634;BME280;32048;49.902;22.508;2023-05-09T08:07:46;99804.84;;;18.13;37.34
37634;BME280;32048;49.902;22.508;2023-05-09T08:10:13;99797.69;;;18.53;36.55
37634;BME280;32048;49.902;22.508;2023-05-09T08:12:40;99801.53;;;18.09;37.30
37634;BME280;32048;49.902;22.508;2023-05-09T08:15:07;99784.63;;;17.81;38.88
37634;BME280;32048;49.902;22.508;2023-05-09T08:17:34;99789.44;;;18.03;37.35
37634;BME280;32048;49.902;22.508;2023-05-09T08:20:02;99789.47;;;18.16;36.30
37634;BME280;32048;49.902;22.508;2023-05-09T08:22:31;99777.59;;;18.20;37.87
37634;BME280;32048;49.902;22.508;2023-05-09T08:24:58;99784.63;;;18.08;35.79
37634;BME280;32048;49.902;22.508;2023-05-09T08:27:25;99773.66;;;17.86;37.79
37634;BME280;32048;49.902;22.508;2023-05-09T08:29:52;99786.19;;;18.25;36.98
37634;BME280;32048;49.902;22.508;2023-05-09T08:32:19;99790.13;;;18.20;35.81
37634;BME280;32048;49.902;22.508;2023-05-09T08:34:46;99790.22;;;17.50;34.40
37634;BME280;32048;49.902;22.508;2023-05-09T08:37:13;99803.06;;;16.27;36.97
37634;BME280;32048;49.902;22.508;2023-05-09T08:39:41;99793.03;;;16.16;38.33
37634;BME280;32048;49.902;22.508;2023-05-09T08:42:08;99790.09;;;16.65;38.65
37634;BME280;32048;49.902;22.508;2023-05-09T08:44:36;99789.97;;;17.25;36.42
37634;BME280;32048;49.902;22.508;2023-05-09T08:47:03;99760.03;;;18.03;35.74
37634;BME280;32048;49.902;22.508;2023-05-09T08:49:30;99779.41;;;18.73;31.34
37634;BME280;32048;49.902;22.508;2023-05-09T08:51:59;99771.47;;;18.58;33.19
37634;BME280;32048;49.902;22.508;2023-05-09T08:54:27;99777.78;;;18.04;32.99
37634;BME280;32048;49.902;22.508;2023-05-09T08:56:54;99758.56;;;18.12;34.36
37634;BME280;32048;49.902;22.508;2023-05-09T08:59:22;99767.91;;;18.32;34.05
37634;BME280;32048;49.902;22.508;2023-05-09T09:01:49;99759.56;;;18.49;35.49
37634;BME280;32048;49.902;22.508;2023-05-09T09:04:16;99771.06;;;17.84;32.24
37634;BME280;32048;49.902;22.508;2023-05-09T09:06:44;99764.97;;;17.41;34.15
37634;BME280;32048;49.902;22.508;2023-05-09T09:09:12;99760.00;;;17.35;34.16
37634;BME280;32048;49.902;22.508;2023-05-09T09:11:39;99756.34;;;17.50;34.01
37634;BME280;32048;49.902;22.508;2023-05-09T09:14:11;99753.06;;;17.32;33.88
37634;BME280;32048;49.902;22.508;2023-05-09T09:16:45;99764.47;;;16.62;34.71
37634;BME280;32048;49.902;22.508;2023-05-09T09:19:16;99760.78;;;15.90;36.12
37634;BME280;32048;49.902;22.508;2023-05-09T09:21:44;99757.94;;;16.24;38.45
37634;BME280;32048;49.902;22.508;2023-05-09T09:24:20;99766.16;;;16.94;35.79
37634;BME280;32048;49.902;22.508;2023-05-09T09:26:50;99749.44;;;17.33;33.68
37634;BME280;32048;49.902;22.508;2023-05-09T09:29:19;99737.56;;;17.52;35.01
37634;BME280;32048;49.902;22.508;2023-05-09T09:31:51;99734.41;;;17.86;35.11
37634;BME280;32048;49.902;22.508;2023-05-09T09:34:20;99762.13;;;17.85;32.16
37634;BME280;32048;49.902;22.508;2023-05-09T09:36:48;99751.50;;;17.84;32.24
37634;BME280;32048;49.902;22.508;2023-05-09T09:39:15;99752.88;;;18.04;33.40
37634;BME280;32048;49.902;22.508;2023-05-09T09:41:43;99761.72;;;18.57;32.13
37634;BME280;32048;49.902;22.508;2023-05-09T09:44:15;99768.75;;;18.33;31.50
37634;BME280;32048;49.902;22.508;2023-05-09T09:46:50;99771.00;;;17.72;30.57
37634;BME280;32048;49.902;22.508;2023-05-09T09:49:24;99780.22;;;17.39;33.11
37634;BME280;32048;49.902;22.508;2023-05-09T09:51:56;99756.53;;;17.20;31.88
37634;BME280;32048;49.902;22.508;2023-05-09T09:54:26;99753.13;;;16.45;33.61
37634;BME280;32048;49.902;22.508;2023-05-09T09:56:54;99755.97;;;16.86;31.74
37634;BME280;32048;49.902;22.508;2023-05-09T09:59:24;99775.56;;;17.28;31.16
37634;BME280;32048;49.902;22.508;2023-05-09T10:02:05;99749.00;;;17.12;32.47
37634;BME280;32048;49.902;22.508;2023-05-09T10:04:38;99737.44;;;17.67;31.62
37634;BME280;32048;49.902;22.508;2023-05-09T10:07:09;99731.19;;;17.54;30.46
37634;BME280;32048;49.902;22.508;2023-05-09T10:09:40;99742.44;;;16.89;32.44
37634;BME280;32048;49.902;22.508;2023-05-09T10:12:07;99729.81;;;16.48;33.86
37634;BME280;32048;49.902;22.508;2023-05-09T10:14:35;99739.91;;;16.13;34.36
37634;BME280;32048;49.902;22.508;2023-05-09T10:17:04;99733.53;;;16.15;34.28
37634;BME280;32048;49.902;22.508;2023-05-09T10:19:32;99731.88;;;16.43;34.57
37634;BME280;32048;49.902;22.508;2023-05-09T10:22:04;99729.88;;;17.33;31.55
37634;BME280;32048;49.902;22.508;2023-05-09T10:27:09;99722.22;;;18.10;30.90
37634;BME280;32048;49.902;22.508;2023-05-09T10:29:40;99719.03;;;18.56;30.09
37634;BME280;32048;49.902;22.508;2023-05-09T10:32:32;99724.38;;;18.68;31.99
37634;BME280;32048;49.902;22.508;2023-05-09T10:35:05;99713.50;;;18.59;29.31
37634;BME280;32048;49.902;22.508;2023-05-09T10:37:34;99705.00;;;18.65;30.25
37634;BME280;32048;49.902;22.508;2023-05-09T10:40:03;99721.78;;;18.28;29.38
37634;BME280;32048;49.902;22.508;2023-05-09T10:42:31;99726.81;;;17.80;29.66
37634;BME280;32048;49.902;22.508;2023-05-09T10:44:58;99720.88;;;17.48;30.96
37634;BME280;32048;49.902;22.508;2023-05-09T10:47:26;99699.59;;;17.61;29.56
37634;BME280;32048;49.902;22.508;2023-05-09T10:49:54;99705.09;;;17.31;30.77
37634;BME280;32048;49.902;22.508;2023-05-09T10:52:22;99702.88;;;17.37;31.49
37634;BME280;32048;49.902;22.508;2023-05-09T10:55:02;99713.50;;;17.93;30.80
37634;BME280;32048;49.902;22.508;2023-05-09T10:57:30;99699.63;;;18.14;29.52
37634;BME280;32048;49.902;22.508;2023-05-09T10:59:58;99694.16;;;17.90;29.24
37634;BME280;32048;49.902;22.508;2023-05-09T11:02:26;99699.19;;;17.94;30.35
37634;BME280;32048;49.902;22.508;2023-05-09T11:05:26;99698.19;;;17.82;29.64
37634;BME280;32048;49.902;22.508;2023-05-09T11:08:30;99699.31;;;17.78;29.64
37634;BME280;32048;49.902;22.508;2023-05-09T11:11:22;99685.84;;;17.80;29.47
37634;BME280;32048;49.902;22.508;2023-05-09T11:13:55;99684.03;;;18.33;28.61
37634;BME280;32048;49.902;22.508;2023-05-09T11:16:25;99672.50;;;18.33;29.15
37634;BME280;32048;49.902;22.508;2023-05-09T11:18:52;99675.75;;;17.98;29.56
37634;BME280;32048;49.902;22.508;2023-05-09T11:21:19;99682.44;;;18.05;29.94
37634;BME280;32048;49.902;22.508;2023-05-09T11:23:47;99712.41;;;17.41;29.11
37634;BME280;32048;49.902;22.508;2023-05-09T11:26:15;99682.47;;;16.52;30.10
37634;BME280;32048;49.902;22.508;2023-05-09T11:28:51;99676.41;;;16.05;30.70
37634;BME280;32048;49.902;22.508;2023-05-09T11:31:19;99666.28;;;16.26;31.73
37634;BME280;32048;49.902;22.508;2023-05-09T11:33:48;99651.22;;;16.97;29.56
37634;BME280;32048;49.902;22.508;2023-05-09T11:39:06;99660.53;;;17.45;30.67
37634;BME280;32048;49.902;22.508;2023-05-09T11:41:50;99652.84;;;16.99;28.80
37634;BME280;32048;49.902;22.508;2023-05-09T11:44:19;99656.28;;;16.73;29.49
37634;BME280;32048;49.902;22.508;2023-05-09T11:46:47;99658.22;;;17.27;31.23
37634;BME280;32048;49.902;22.508;2023-05-09T11:49:14;99645.63;;;17.83;28.05
37634;BME280;32048;49.902;22.508;2023-05-09T11:51:42;99627.00;;;17.81;28.43
37634;BME280;32048;49.902;22.508;2023-05-09T11:54:10;99661.66;;;17.96;27.99
37634;BME280;32048;49.902;22.508;2023-05-09T11:56:40;99650.31;;;17.52;28.90
37634;BME280;32048;49.902;22.508;2023-05-09T11:59:08;99634.97;;;17.41;28.82
37634;BME280;32048;49.902;22.508;2023-05-09T12:01:36;99638.09;;;17.48;29.67
37634;BME280;32048;49.902;22.508;2023-05-09T12:04:05;99631.69;;;17.51;28.41
37634;BME280;32048;49.902;22.508;2023-05-09T12:06:33;99643.81;;;17.02;29.16
37634;BME280;32048;49.902;22.508;2023-05-09T12:09:00;99641.78;;;16.77;29.67
37634;BME280;32048;49.902;22.508;2023-05-09T12:11:28;99633.72;;;16.50;29.01
37634;BME280;32048;49.902;22.508;2023-05-09T12:13:58;99636.47;;;16.34;29.73
37634;BME280;32048;49.902;22.508;2023-05-09T12:16:25;99623.16;;;16.48;28.88
37634;BME280;32048;49.902;22.508;2023-05-09T12:18:52;99622.56;;;16.72;29.64
37634;BME280;32048;49.902;22.508;2023-05-09T12:21:20;99622.19;;;16.78;30.64
37634;BME280;32048;49.902;22.508;2023-05-09T12:23:48;99614.56;;;16.72;31.45
37634;BME280;32048;49.902;22.508;2023-05-09T12:26:20;99638.19;;;16.49;31.48
37634;BME280;32048;49.902;22.508;2023-05-09T12:28:48;99616.78;;;16.22;30.34
37634;BME280;32048;49.902;22.508;2023-05-09T12:31:16;99602.88;;;16.17;30.78
37634;BME280;32048;49.902;22.508;2023-05-09T12:33:44;99597.94;;;16.39;31.95
37634;BME280;32048;49.902;22.508;2023-05-09T12:36:12;99592.50;;;16.55;29.19
37634;BME280;32048;49.902;22.508;2023-05-09T12:38:39;99581.19;;;16.37;29.60
37634;BME280;32048;49.902;22.508;2023-05-09T12:41:08;99576.41;;;16.42;31.58
37634;BME280;32048;49.902;22.508;2023-05-09T12:43:56;99577.06;;;16.60;29.80
37634;BME280;32048;49.902;22.508;2023-05-09T12:46:23;99582.00;;;16.52;30.11
37634;BME280;32048;49.902;22.508;2023-05-09T12:48:50;99566.16;;;16.22;30.63
37634;BME280;32048;49.902;22.508;2023-05-09T12:51:18;99567.19;;;16.19;30.92
37634;BME280;32048;49.902;22.508;2023-05-09T12:53:47;99563.78;;;16.17;30.61
37634;BME280;32048;49.902;22.508;2023-05-09T12:56:16;99568.06;;;16.06;31.89
37634;BME280;32048;49.902;22.508;2023-05-09T12:58:46;99565.56;;;15.88;32.26
37634;BME280;32048;49.902;22.508;2023-05-09T13:01:14;99573.63;;;15.87;32.69
37634;BME280;32048;49.902;22.508;2023-05-09T13:03:42;99568.88;;;15.77;30.93
37634;BME280;32048;49.902;22.508;2023-05-09T13:06:12;99564.63;;;15.59;31.51
37634;BME280;32048;49.902;22.508;2023-05-09T13:08:40;99551.22;;;15.61;31.72
37634;BME280;32048;49.902;22.508;2023-05-09T13:11:10;99554.38;;;15.67;32.12